Time;durP1;ratioP1;P1;durP2;ratioP2;P2;SDS_P1;SDS_P2;PMS_P1;PMS_P2;Temp;Humidity;BMP_temperature;BMP_pressure;BME280_temperature;BME280_humidity;BME280_pressure;Samples;Min_cycle;Max_cycle;Signal;HPM_P1;HPM_P2
2023/06/16 00:01:06;;;;;;;8.95;6.18;;;17.70;93.00;;;;;;5027762;28;20044;-58
2023/06/16 00:03:35;;;;;;;9.40;6.95;;;17.60;93.30;;;;;;5043883;28;20159;-58
2023/06/16 00:06:14;;;;;;;7.35;5.85;;;17.60;93.60;;;;;;5045956;28;20101;-57
2023/06/16 00:08:45;;;;;;;8.98;7.47;;;17.60;93.80;;;;;;5045852;28;20043;-57
2023/06/16 00:11:15;;;;;;;10.48;8.32;;;17.60;94.00;;;;;;5060507;28;20055;-58
2023/06/16 00:13:42;;;;;;;9.93;8.25;;;17.50;94.30;;;;;;5046919;28;20071;-58
2023/06/16 00:16:09;;;;;;;11.55;6.88;;;17.50;94.60;;;;;;5047356;28;20044;-58
2023/06/16 00:18:36;;;;;;;8.68;7.20;;;17.50;95.00;;;;;;5044694;28;20376;-58
2023/06/16 00:21:02;;;;;;;12.75;8.55;;;17.40;95.20;;;;;;5044472;28;20189;-56
2023/06/16 00:23:29;;;;;;;10.65;6.90;;;17.40;95.50;;;;;;5040528;28;20445;-58
2023/06/16 00:25:56;;;;;;;11.05;9.32;;;17.40;95.90;;;;;;5043960;28;20048;-58
2023/06/16 00:28:22;;;;;;;12.05;9.25;;;17.40;96.30;;;;;;5047159;28;20438;-58
2023/06/16 00:30:47;;;;;;;12.63;9.30;;;17.30;96.60;;;;;;5043306;28;20117;-58
2023/06/16 00:33:15;;;;;;;12.25;10.65;;;17.30;97.00;;;;;;5043514;28;20408;-58
2023/06/16 00:35:45;;;;;;;13.32;10.80;;;17.30;97.40;;;;;;5041389;28;20049;-58
2023/06/16 00:38:11;;;;;;;10.70;9.50;;;17.30;97.90;;;;;;5043528;28;20491;-58
2023/06/16 00:40:37;;;;;;;12.63;11.20;;;17.20;98.20;;;;;;5028644;28;20062;-58
2023/06/16 00:43:03;;;;;;;12.88;11.07;;;17.20;98.50;;;;;;5062550;28;20044;-58
2023/06/16 00:45:30;;;;;;;12.63;10.18;;;17.20;98.80;;;;;;5023979;28;20267;-57
2023/06/16 00:48:00;;;;;;;11.30;10.10;;;17.20;99.10;;;;;;5041304;28;20041;-58
2023/06/16 00:50:27;;;;;;;9.70;8.70;;;17.20;99.30;;;;;;5059449;28;20116;-58
2023/06/16 00:52:53;;;;;;;11.93;9.48;;;17.20;99.50;;;;;;5030529;28;20377;-58
2023/06/16 00:55:21;;;;;;;12.65;8.88;;;17.20;99.60;;;;;;5064003;28;20040;-58
2023/06/16 00:57:52;;;;;;;12.55;10.00;;;17.10;99.70;;;;;;5025755;28;20033;-58
2023/06/16 01:00:20;;;;;;;11.68;10.57;;;17.10;99.80;;;;;;5044228;28;20048;-58
2023/06/16 01:02:46;;;;;;;11.95;10.32;;;17.10;99.90;;;;;;5020627;28;20049;-57
2023/06/16 01:05:16;;;;;;;14.82;11.52;;;17.10;99.90;;;;;;5039371;28;20059;-58
2023/06/16 01:08:00;;;;;;;15.20;12.00;;;17.10;99.90;;;;;;5038179;28;20040;-57
2023/06/16 01:10:44;;;;;;;10.30;9.23;;;17.10;99.90;;;;;;5042998;28;20037;-56
2023/06/16 01:13:25;;;;;;;11.90;10.80;;;17.00;99.90;;;;;;5024084;28;20118;-57
2023/06/16 01:15:52;;;;;;;13.70;11.68;;;17.00;99.90;;;;;;5044803;28;20056;-58
2023/06/16 01:18:22;;;;;;;10.27;9.27;;;17.00;99.90;;;;;;5042008;28;20044;-58
2023/06/16 01:21:05;;;;;;;10.00;8.45;;;17.00;99.90;;;;;;5038423;28;20040;-56
2023/06/16 01:23:54;;;;;;;10.07;9.07;;;16.90;99.90;;;;;;5043703;28;20131;-57
2023/06/16 01:26:22;;;;;;;13.68;11.15;;;17.00;99.90;;;;;;5034355;28;20633;-58
2023/06/16 01:28:49;;;;;;;12.95;11.65;;;17.00;99.90;;;;;;5040837;28;20048;-57
2023/06/16 01:31:17;;;;;;;12.43;11.18;;;17.00;99.90;;;;;;5055659;28;20613;-58
2023/06/16 01:33:45;;;;;;;14.30;12.88;;;16.90;99.90;;;;;;5046420;28;20097;-58
2023/06/16 01:36:12;;;;;;;16.40;13.70;;;16.90;99.90;;;;;;5044914;28;20051;-56
2023/06/16 01:38:39;;;;;;;16.20;14.60;;;16.90;99.90;;;;;;5024528;28;20550;-57
2023/06/16 01:41:06;;;;;;;16.13;14.50;;;16.90;99.90;;;;;;5041882;28;20044;-57
2023/06/16 01:43:33;;;;;;;13.65;11.20;;;16.90;99.90;;;;;;5043253;28;20041;-58
2023/06/16 01:45:59;;;;;;;15.45;13.35;;;16.90;99.90;;;;;;5027124;28;20097;-58
2023/06/16 01:48:25;;;;;;;15.70;13.82;;;16.80;99.90;;;;;;5045444;28;20052;-58
2023/06/16 01:50:51;;;;;;;18.17;15.68;;;16.80;99.90;;;;;;5024722;28;20059;-58
2023/06/16 01:53:17;;;;;;;16.65;14.95;;;16.80;99.90;;;;;;5041140;28;20055;-57
2023/06/16 01:55:50;;;;;;;18.63;16.83;;;16.80;99.90;;;;;;5041459;28;20036;-58
2023/06/16 01:58:18;;;;;;;19.50;16.35;;;16.80;99.90;;;;;;5043741;28;20105;-58
2023/06/16 02:01:24;;;;;;;17.02;15.23;;;16.80;99.90;;;;;;5043280;28;20128;-57
2023/06/16 02:04:02;;;;;;;17.73;15.77;;;16.80;99.90;;;;;;5041313;28;20072;-58
2023/06/16 02:06:33;;;;;;;14.50;12.98;;;16.80;99.90;;;;;;5028852;28;20044;-58
2023/06/16 02:09:03;;;;;;;13.45;12.05;;;16.70;99.90;;;;;;5021976;28;20041;-58
2023/06/16 02:11:29;;;;;;;14.00;12.50;;;16.70;99.90;;;;;;5042233;28;20028;-58
2023/06/16 02:13:55;;;;;;;18.73;16.02;;;16.70;99.90;;;;;;5044543;28;20049;-58
2023/06/16 02:16:21;;;;;;;13.60;11.85;;;16.60;99.90;;;;;;5027202;28;20102;-58
2023/06/16 02:18:53;;;;;;;18.23;16.15;;;16.50;99.90;;;;;;5061600;28;20048;-58
2023/06/16 02:21:20;;;;;;;20.38;16.55;;;16.50;99.90;;;;;;5036266;28;20601;-58
2023/06/16 02:23:45;;;;;;;14.65;12.82;;;16.50;99.90;;;;;;5043244;28;20045;-58
2023/06/16 02:26:11;;;;;;;15.50;13.88;;;16.40;99.90;;;;;;5056058;28;20043;-55
2023/06/16 02:28:37;;;;;;;20.83;18.33;;;16.40;99.90;;;;;;5058061;28;20127;-58
2023/06/16 02:31:02;;;;;;;18.10;15.00;;;16.40;99.90;;;;;;5035723;28;20067;-57
2023/06/16 02:33:28;;;;;;;18.67;16.80;;;16.30;99.90;;;;;;5043504;28;20044;-58
2023/06/16 02:35:54;;;;;;;19.98;17.95;;;16.30;99.90;;;;;;5026748;28;20037;-58
2023/06/16 02:38:20;;;;;;;19.05;17.02;;;16.30;99.90;;;;;;5060276;28;20045;-58
2023/06/16 02:40:46;;;;;;;18.52;16.73;;;16.20;99.90;;;;;;5040329;28;20131;-58
2023/06/16 02:43:11;;;;;;;20.95;15.68;;;16.20;99.90;;;;;;5042786;28;20062;-57
2023/06/16 02:45:39;;;;;;;16.02;14.43;;;16.20;99.90;;;;;;5035853;28;20044;-58
2023/06/16 02:48:05;;;;;;;17.50;15.70;;;16.10;99.90;;;;;;5048413;28;20060;-57
2023/06/16 02:50:31;;;;;;;19.30;17.20;;;16.20;99.90;;;;;;5048074;28;20518;-58
2023/06/16 02:52:58;;;;;;;15.93;14.27;;;16.00;99.90;;;;;;5033307;28;20049;-58
2023/06/16 02:55:24;;;;;;;15.05;13.35;;;16.10;99.90;;;;;;5031955;28;20079;-58
2023/06/16 02:57:50;;;;;;;18.85;16.10;;;16.10;99.90;;;;;;5027688;28;20450;-58
2023/06/16 03:00:16;;;;;;;15.73;14.18;;;16.00;99.90;;;;;;5047678;28;20317;-57
2023/06/16 03:02:42;;;;;;;19.58;17.55;;;15.90;99.90;;;;;;5061153;28;20043;-58
2023/06/16 03:05:08;;;;;;;18.98;17.00;;;15.90;99.90;;;;;;5032969;28;20033;-57
2023/06/16 03:07:34;;;;;;;18.30;15.10;;;15.90;99.90;;;;;;5044538;28;20103;-58
2023/06/16 03:10:01;;;;;;;20.35;18.33;;;15.90;99.90;;;;;;5043899;28;20064;-58
2023/06/16 03:12:27;;;;;;;17.00;15.18;;;15.90;99.90;;;;;;5043454;28;20364;-57
2023/06/16 03:14:53;;;;;;;18.35;15.43;;;15.90;99.90;;;;;;5029327;28;20044;-58
2023/06/16 03:17:21;;;;;;;22.05;19.25;;;16.00;99.90;;;;;;5044855;28;20084;-56
2023/06/16 03:19:50;;;;;;;18.50;16.25;;;16.00;99.90;;;;;;5044626;28;20041;-58
2023/06/16 03:22:16;;;;;;;15.15;13.65;;;16.00;99.90;;;;;;5044365;28;20067;-57
2023/06/16 03:24:43;;;;;;;17.33;15.73;;;16.00;99.90;;;;;;5048772;28;20052;-58
2023/06/16 03:27:09;;;;;;;17.23;15.50;;;15.90;99.90;;;;;;5011744;28;20124;-56
2023/06/16 03:29:36;;;;;;;19.83;17.80;;;15.80;99.90;;;;;;5046876;28;20075;-58
2023/06/16 03:32:06;;;;;;;19.40;16.80;;;15.70;99.90;;;;;;5038011;28;20040;-58
2023/06/16 03:34:33;;;;;;;17.08;15.38;;;15.70;99.90;;;;;;5044200;28;20416;-58
2023/06/16 03:36:59;;;;;;;18.05;16.30;;;15.70;99.90;;;;;;5048457;28;20048;-58
2023/06/16 03:39:25;;;;;;;17.23;15.43;;;15.70;99.90;;;;;;5046272;28;20670;-56
2023/06/16 03:41:52;;;;;;;19.42;17.38;;;15.70;99.90;;;;;;5046863;28;20090;-57
2023/06/16 03:44:18;;;;;;;15.77;13.40;;;15.70;99.90;;;;;;5041935;28;20050;-57
2023/06/16 03:46:44;;;;;;;17.02;15.32;;;15.70;99.90;;;;;;5048360;28;20051;-58
2023/06/16 03:49:10;;;;;;;17.60;15.77;;;15.80;99.90;;;;;;5028778;28;20036;-57
2023/06/16 03:51:37;;;;;;;17.05;15.30;;;15.80;99.90;;;;;;5047897;28;20087;-58
2023/06/16 03:54:03;;;;;;;17.88;15.98;;;15.70;99.90;;;;;;5041926;28;20079;-58
2023/06/16 03:56:28;;;;;;;15.60;14.00;;;15.60;99.90;;;;;;5048253;28;20127;-58
2023/06/16 03:58:55;;;;;;;17.80;15.30;;;15.50;99.90;;;;;;5040961;28;20044;-57
2023/06/16 04:01:22;;;;;;;17.00;15.40;;;15.50;99.90;;;;;;5044659;28;20102;-58
2023/06/16 04:03:49;;;;;;;16.23;14.55;;;15.50;99.90;;;;;;5063320;28;20424;-57
2023/06/16 04:06:15;;;;;;;17.73;15.27;;;15.40;99.90;;;;;;5032094;28;20044;-57
2023/06/16 04:08:41;;;;;;;19.65;17.75;;;15.40;99.90;;;;;;5039926;28;20408;-58
2023/06/16 04:11:07;;;;;;;14.85;13.25;;;15.40;99.90;;;;;;5028412;28;20048;-58
2023/06/16 04:13:33;;;;;;;14.48;13.07;;;15.50;99.90;;;;;;5027599;28;20546;-58
2023/06/16 04:15:58;;;;;;;19.45;17.55;;;15.50;99.90;;;;;;5027624;28;20048;-57
2023/06/16 04:18:24;;;;;;;16.85;15.15;;;15.50;99.90;;;;;;5046424;28;20094;-58
2023/06/16 04:20:50;;;;;;;19.75;17.70;;;15.60;99.90;;;;;;5044879;28;20419;-57
2023/06/16 04:23:16;;;;;;;18.35;16.45;;;15.60;99.90;;;;;;5041811;28;20037;-57
2023/06/16 04:25:42;;;;;;;17.00;15.27;;;15.60;99.90;;;;;;5039627;28;20091;-57
2023/06/16 04:28:13;;;;;;;17.38;15.48;;;15.60;99.90;;;;;;5045792;28;20048;-58
2023/06/16 04:30:40;;;;;;;18.38;16.38;;;15.60;99.90;;;;;;5044472;28;20128;-58
2023/06/16 04:33:06;;;;;;;22.60;20.40;;;15.70;99.90;;;;;;5008302;28;20664;-58
2023/06/16 04:35:34;;;;;;;20.35;18.30;;;15.70;99.90;;;;;;5030033;28;20040;-58
2023/06/16 04:38:00;;;;;;;22.85;20.35;;;15.80;99.90;;;;;;5061354;23;20037;-55
2023/06/16 04:40:27;;;;;;;22.35;19.95;;;15.80;99.90;;;;;;5046896;28;20402;-56
2023/06/16 04:42:53;;;;;;;26.58;22.88;;;15.80;99.90;;;;;;5045216;28;20041;-57
2023/06/16 04:45:19;;;;;;;24.55;22.05;;;15.90;99.90;;;;;;5045167;28;20059;-57
2023/06/16 04:47:46;;;;;;;26.80;24.00;;;16.00;99.90;;;;;;5048807;28;20040;-57
2023/06/16 04:50:15;;;;;;;24.08;21.67;;;16.00;99.90;;;;;;5029696;28;20452;-58
2023/06/16 04:52:41;;;;;;;26.98;24.13;;;16.00;99.90;;;;;;5047827;28;20119;-57
2023/06/16 04:55:07;;;;;;;28.75;25.52;;;16.00;99.90;;;;;;5043631;28;20068;-57
2023/06/16 04:57:34;;;;;;;24.63;22.23;;;16.00;99.90;;;;;;5061933;28;20459;-58
2023/06/16 05:00:03;;;;;;;24.70;22.25;;;16.10;99.90;;;;;;5043861;28;20053;-58
2023/06/16 05:02:29;;;;;;;24.10;20.48;;;16.10;99.90;;;;;;5045307;28;20106;-57
2023/06/16 05:04:56;;;;;;;29.63;25.77;;;16.20;99.90;;;;;;5042970;28;20478;-57
2023/06/16 05:07:22;;;;;;;26.88;22.52;;;16.20;99.90;;;;;;5026206;28;20044;-57
2023/06/16 05:09:47;;;;;;;25.30;22.60;;;16.30;99.90;;;;;;5045733;28;20463;-56
2023/06/16 05:12:13;;;;;;;28.25;25.23;;;16.30;99.90;;;;;;5048284;28;20173;-56
2023/06/16 05:14:39;;;;;;;26.75;24.05;;;16.40;99.90;;;;;;5041511;28;20139;-57
2023/06/16 05:17:05;;;;;;;31.10;27.77;;;16.40;99.90;;;;;;5046249;28;20053;-54
2023/06/16 05:19:32;;;;;;;27.42;24.33;;;16.50;99.90;;;;;;5042272;28;20041;-56
2023/06/16 05:21:58;;;;;;;23.85;21.45;;;16.60;99.90;;;;;;5026783;28;20040;-55
2023/06/16 05:24:24;;;;;;;25.30;22.65;;;16.60;99.90;;;;;;5046654;28;20468;-55
2023/06/16 05:26:50;;;;;;;24.38;21.98;;;16.70;99.90;;;;;;5045319;28;20123;-54
2023/06/16 05:29:16;;;;;;;25.27;21.50;;;16.80;99.90;;;;;;5044568;28;20037;-56
2023/06/16 05:31:41;;;;;;;26.17;23.30;;;16.90;99.90;;;;;;5035816;28;20036;-54
2023/06/16 05:34:07;;;;;;;27.40;24.60;;;16.90;99.90;;;;;;5039747;28;20032;-57
2023/06/16 05:36:42;;;;;;;24.08;21.58;;;17.00;99.90;;;;;;5040886;28;20052;-55
2023/06/16 05:39:17;;;;;;;24.95;22.25;;;17.10;99.90;;;;;;5041374;28;20048;-55
2023/06/16 05:41:43;;;;;;;25.02;22.33;;;17.10;99.90;;;;;;5024183;28;20055;-54
2023/06/16 05:44:08;;;;;;;24.15;21.70;;;17.20;99.90;;;;;;5025600;28;20037;-57
2023/06/16 05:46:34;;;;;;;21.45;19.38;;;17.30;99.90;;;;;;5040180;28;20043;-53
2023/06/16 05:49:03;;;;;;;22.55;20.17;;;17.40;99.90;;;;;;5058175;28;20044;-52
2023/06/16 05:51:28;;;;;;;21.38;19.00;;;17.40;99.90;;;;;;5020838;28;20048;-56
2023/06/16 05:53:57;;;;;;;21.13;19.10;;;17.50;99.90;;;;;;5036706;28;21840;-55
2023/06/16 05:56:23;;;;;;;20.13;18.02;;;17.60;99.90;;;;;;5010801;28;20142;-55
2023/06/16 05:58:52;;;;;;;18.90;16.25;;;17.60;99.90;;;;;;5039251;28;20048;-56
2023/06/16 06:01:18;;;;;;;17.42;15.68;;;17.70;99.90;;;;;;5038755;28;20048;-56
2023/06/16 06:03:45;;;;;;;17.60;15.90;;;17.80;99.90;;;;;;5042226;28;20056;-56
2023/06/16 06:06:11;;;;;;;17.15;15.27;;;17.90;99.90;;;;;;5041112;28;20037;-55
2023/06/16 06:08:38;;;;;;;17.67;15.20;;;18.00;99.90;;;;;;5036252;28;20119;-56
2023/06/16 06:11:06;;;;;;;17.27;15.00;;;18.10;99.90;;;;;;5043289;28;20408;-54
2023/06/16 06:13:32;;;;;;;18.33;16.35;;;18.10;99.90;;;;;;5038309;28;20327;-55
2023/06/16 06:15:58;;;;;;;14.32;12.82;;;18.10;99.90;;;;;;5024025;28;20152;-55
2023/06/16 06:18:24;;;;;;;15.35;13.82;;;18.20;99.90;;;;;;5038294;28;20797;-54
2023/06/16 06:20:50;;;;;;;15.10;13.55;;;18.30;99.90;;;;;;5043549;28;20235;-56
2023/06/16 06:23:15;;;;;;;13.85;11.90;;;18.40;99.90;;;;;;5042218;28;20037;-56
2023/06/16 06:25:42;;;;;;;13.73;12.32;;;18.50;99.90;;;;;;5043115;28;20043;-55
2023/06/16 06:28:08;;;;;;;15.18;13.15;;;18.60;99.90;;;;;;5043437;28;20049;-57
2023/06/16 06:30:35;;;;;;;14.15;12.75;;;18.60;99.90;;;;;;5025678;28;20044;-57
2023/06/16 06:33:01;;;;;;;13.98;12.48;;;18.70;99.90;;;;;;5039411;28;20048;-54
2023/06/16 06:35:27;;;;;;;15.55;13.20;;;18.80;99.90;;;;;;5039531;28;20252;-53
2023/06/16 06:37:56;;;;;;;14.25;12.85;;;18.90;99.90;;;;;;5026375;28;20087;-53
2023/06/16 06:40:22;;;;;;;19.27;13.48;;;19.10;99.90;;;;;;5044209;28;20036;-56
2023/06/16 06:42:47;;;;;;;12.63;11.32;;;19.20;99.90;;;;;;5047243;28;20509;-52
2023/06/16 06:45:14;;;;;;;15.00;13.45;;;19.30;99.90;;;;;;5043765;28;20040;-56
2023/06/16 06:47:39;;;;;;;14.60;11.48;;;19.20;99.90;;;;;;5046130;28;20458;-56
2023/06/16 06:50:06;;;;;;;18.10;11.20;;;19.30;99.90;;;;;;5049316;28;20044;-54
2023/06/16 06:52:31;;;;;;;12.50;10.57;;;19.30;99.90;;;;;;5045230;28;20068;-54
2023/06/16 06:54:57;;;;;;;12.18;9.57;;;19.30;99.90;;;;;;5059740;28;20090;-55
2023/06/16 06:57:23;;;;;;;10.32;9.13;;;19.50;99.90;;;;;;5029695;28;20610;-55
2023/06/16 06:59:49;;;;;;;9.73;8.73;;;19.60;99.90;;;;;;5051135;28;20052;-57
2023/06/16 07:02:17;;;;;;;11.27;9.00;;;19.70;99.90;;;;;;5025922;28;20044;-55
2023/06/16 07:04:46;;;;;;;10.48;9.38;;;19.70;99.90;;;;;;5043861;28;20384;-52
2023/06/16 07:07:13;;;;;;;10.70;9.60;;;19.70;99.90;;;;;;5038547;28;20052;-56
2023/06/16 07:10:05;;;;;;;10.98;9.88;;;19.80;99.90;;;;;;5030829;28;20048;-55
2023/06/16 07:12:31;;;;;;;10.30;8.13;;;19.80;99.90;;;;;;5025740;28;20045;-56
2023/06/16 07:14:57;;;;;;;11.10;9.90;;;20.00;99.90;;;;;;5046721;28;20045;-52
2023/06/16 07:17:22;;;;;;;9.20;8.07;;;20.10;99.90;;;;;;5045891;28;20392;-56
2023/06/16 07:19:48;;;;;;;13.30;8.52;;;20.20;99.90;;;;;;5044250;28;20060;-58
2023/06/16 07:22:14;;;;;;;10.63;9.52;;;20.40;99.90;;;;;;5049781;28;20044;-55
2023/06/16 07:24:40;;;;;;;8.95;7.43;;;20.40;99.90;;;;;;5013004;28;20127;-56
2023/06/16 07:27:06;;;;;;;9.25;8.30;;;20.50;99.90;;;;;;5049213;28;20498;-52
2023/06/16 07:29:32;;;;;;;13.65;8.02;;;20.40;98.10;;;;;;5028710;28;20530;-53
2023/06/16 07:31:58;;;;;;;10.30;7.40;;;20.50;98.80;;;;;;5042819;28;20037;-53
2023/06/16 07:34:23;;;;;;;9.13;6.65;;;20.60;98.50;;;;;;5041316;28;20082;-57
2023/06/16 07:36:49;;;;;;;8.25;6.80;;;20.70;97.70;;;;;;5041314;28;20478;-57
2023/06/16 07:39:16;;;;;;;10.55;6.53;;;20.70;97.50;;;;;;5058654;28;20066;-56
2023/06/16 07:41:42;;;;;;;10.38;6.90;;;20.80;97.00;;;;;;5028423;28;20041;-54
2023/06/16 07:44:08;;;;;;;10.60;7.40;;;20.90;96.60;;;;;;5026522;28;20398;-53
2023/06/16 07:46:34;;;;;;;12.23;8.63;;;20.90;95.90;;;;;;5029433;28;20068;-56
2023/06/16 07:49:00;;;;;;;9.10;7.28;;;20.90;96.40;;;;;;5039755;28;20551;-56
2023/06/16 07:51:26;;;;;;;9.10;7.25;;;20.80;94.10;;;;;;5041258;28;20128;-58
2023/06/16 07:53:52;;;;;;;9.85;8.27;;;20.70;94.10;;;;;;5043230;28;20083;-58
2023/06/16 07:56:18;;;;;;;9.50;6.93;;;20.50;94.00;;;;;;5043407;28;20080;-56
2023/06/16 07:58:45;;;;;;;8.38;6.90;;;20.60;94.90;;;;;;5042469;28;20083;-54
2023/06/16 08:01:11;;;;;;;9.50;7.13;;;20.80;95.00;;;;;;5052860;28;20082;-55
2023/06/16 08:03:37;;;;;;;12.02;7.43;;;20.70;94.20;;;;;;5058492;28;20080;-58
2023/06/16 08:06:04;;;;;;;8.02;6.20;;;20.70;94.30;;;;;;5043607;28;20154;-59
2023/06/16 08:08:32;;;;;;;7.38;4.85;;;20.80;93.80;;;;;;5045066;28;20044;-54
2023/06/16 08:10:59;;;;;;;8.85;4.97;;;21.00;93.10;;;;;;5044934;28;20056;-59
2023/06/16 08:13:26;;;;;;;6.38;4.70;;;21.10;91.50;;;;;;5047807;28;20071;-55
2023/06/16 08:15:51;;;;;;;4.93;4.15;;;21.20;92.10;;;;;;5044239;28;20052;-54
2023/06/16 08:18:18;;;;;;;8.48;3.67;;;21.30;91.70;;;;;;5063487;28;20059;-59
2023/06/16 08:20:47;;;;;;;4.53;3.83;;;21.30;87.60;;;;;;5049400;28;20082;-58
2023/06/16 08:23:13;;;;;;;6.53;4.18;;;21.40;88.40;;;;;;5040438;28;20040;-56
2023/06/16 08:25:38;;;;;;;5.32;4.57;;;21.40;88.20;;;;;;5026215;28;20127;-58
2023/06/16 08:28:07;;;;;;;8.77;3.80;;;21.50;86.90;;;;;;5043166;28;20384;-55
2023/06/16 08:30:36;;;;;;;3.92;2.83;;;21.40;81.00;;;;;;5027870;28;20365;-56
2023/06/16 08:33:02;;;;;;;4.93;3.10;;;21.50;82.40;;;;;;5041724;28;20055;-61
2023/06/16 08:35:28;;;;;;;7.05;2.97;;;21.50;79.60;;;;;;5047992;28;20451;-56
2023/06/16 08:37:54;;;;;;;5.38;2.72;;;21.70;79.50;;;;;;5065967;28;20095;-56
2023/06/16 08:40:20;;;;;;;5.75;3.40;;;21.80;78.30;;;;;;5017716;28;20044;-53
2023/06/16 08:42:47;;;;;;;4.45;3.15;;;21.70;77.20;;;;;;5046783;28;20036;-55
2023/06/16 08:45:13;;;;;;;4.80;3.25;;;21.80;78.90;;;;;;5043844;28;20170;-56
2023/06/16 08:47:39;;;;;;;6.20;2.97;;;21.90;79.30;;;;;;5047455;28;20044;-59
2023/06/16 08:50:09;;;;;;;6.57;3.40;;;21.90;77.00;;;;;;5039660;28;20045;-57
2023/06/16 08:52:41;;;;;;;5.70;3.20;;;22.00;79.40;;;;;;5042651;28;20040;-56
2023/06/16 08:55:10;;;;;;;6.35;2.50;;;22.20;77.20;;;;;;5065229;28;20056;-56
2023/06/16 08:57:47;;;;;;;5.22;2.97;;;22.30;77.90;;;;;;5030953;28;20572;-56
2023/06/16 09:00:17;;;;;;;5.15;2.67;;;22.30;76.40;;;;;;5026871;28;20056;-56
2023/06/16 09:02:49;;;;;;;4.88;2.70;;;22.40;75.30;;;;;;5046277;28;20087;-56
2023/06/16 09:05:16;;;;;;;7.07;3.15;;;22.40;74.80;;;;;;5048662;28;20049;-56
2023/06/16 09:07:43;;;;;;;5.40;2.92;;;22.50;76.50;;;;;;5032647;28;20083;-54
2023/06/16 09:10:09;;;;;;;4.55;3.22;;;22.70;76.30;;;;;;5029609;28;20578;-59
2023/06/16 09:12:36;;;;;;;10.57;2.55;;;22.70;75.20;;;;;;5059120;28;20048;-56
2023/06/16 09:15:08;;;;;;;6.13;2.95;;;22.80;74.80;;;;;;5026551;28;20048;-54
2023/06/16 09:17:34;;;;;;;6.73;2.77;;;22.80;74.20;;;;;;5044149;28;20048;-57
2023/06/16 09:20:01;;;;;;;4.10;2.60;;;22.80;74.20;;;;;;5046843;28;20044;-56
2023/06/16 09:22:28;;;;;;;4.53;2.80;;;22.80;73.00;;;;;;5046642;28;20045;-59
2023/06/16 09:24:56;;;;;;;3.45;2.50;;;22.70;70.30;;;;;;5040944;28;20044;-58
2023/06/16 09:27:24;;;;;;;5.50;2.70;;;22.40;70.00;;;;;;5045012;28;20047;-56
2023/06/16 09:29:58;;;;;;;4.72;2.85;;;22.50;70.60;;;;;;5041729;28;20048;-55
2023/06/16 09:32:24;;;;;;;4.22;2.42;;;22.60;68.90;;;;;;5057776;28;20579;-53
2023/06/16 09:34:50;;;;;;;5.05;2.60;;;22.50;68.00;;;;;;5033351;28;20222;-57
2023/06/16 09:37:19;;;;;;;5.50;2.72;;;22.50;68.10;;;;;;5026391;28;20119;-57
2023/06/16 09:39:46;;;;;;;4.15;2.85;;;22.60;69.70;;;;;;5042669;28;20047;-57
2023/06/16 09:42:12;;;;;;;2.53;2.22;;;22.70;69.40;;;;;;5038105;28;20073;-54
2023/06/16 09:44:40;;;;;;;6.70;2.80;;;23.00;70.70;;;;;;5040029;28;20055;-56
2023/06/16 09:47:06;;;;;;;5.18;2.70;;;23.10;69.40;;;;;;5038745;28;20138;-55
2023/06/16 09:49:32;;;;;;;6.63;3.10;;;23.20;69.30;;;;;;5033538;28;20545;-58
2023/06/16 09:51:58;;;;;;;4.75;2.97;;;23.30;68.20;;;;;;5047344;28;20400;-55
2023/06/16 09:54:26;;;;;;;6.80;2.75;;;23.20;67.70;;;;;;5037968;28;20426;-58
2023/06/16 09:56:59;;;;;;;3.55;2.80;;;23.10;66.60;;;;;;5040222;28;20051;-56
2023/06/16 09:59:27;;;;;;;4.97;2.97;;;23.30;68.90;;;;;;5049736;28;20053;-53
2023/06/16 10:01:55;;;;;;;5.97;2.75;;;23.10;65.80;;;;;;5033457;28;20488;-56
2023/06/16 10:04:22;;;;;;;4.32;3.40;;;23.30;68.00;;;;;;5044772;28;20076;-59
2023/06/16 10:06:54;;;;;;;6.78;3.08;;;23.30;66.70;;;;;;5015524;28;20053;-57
2023/06/16 10:10:12;;;;;;;5.40;2.70;;;23.00;66.90;;;;;;5038207;28;20072;-56
2023/06/16 10:12:46;;;;;;;4.43;2.67;;;23.20;68.30;;;;;;4970036;28;20051;-57
2023/06/16 10:15:32;;;;;;;;;;;23.50;68.10;;;;;;5041156;28;20386;-57
2023/06/16 10:18:03;;;;;;;11.30;3.40;;;23.60;66.70;;;;;;5044915;28;20613;-59
2023/06/16 10:20:33;;;;;;;5.72;3.15;;;23.80;68.00;;;;;;5046634;28;20045;-56
2023/06/16 10:23:00;;;;;;;6.07;3.00;;;24.00;67.30;;;;;;5040788;28;20033;-55
2023/06/16 10:25:29;;;;;;;3.95;3.13;;;23.90;66.80;;;;;;5023842;28;20083;-57
2023/06/16 10:27:56;;;;;;;5.70;2.92;;;23.90;66.50;;;;;;5037679;28;20047;-60
2023/06/16 10:30:23;;;;;;;5.13;2.60;;;24.00;66.50;;;;;;5044196;28;20032;-58
2023/06/16 10:32:50;;;;;;;4.68;2.50;;;24.20;67.30;;;;;;5029457;28;20128;-55
2023/06/16 10:35:21;;;;;;;5.65;2.63;;;24.20;66.90;;;;;;5042453;28;20036;-57
2023/06/16 10:37:55;;;;;;;6.20;2.97;;;24.00;65.60;;;;;;5047161;28;20088;-57
2023/06/16 10:40:21;;;;;;;;;;;24.00;65.20;;;;;;5039595;28;20036;-58
2023/06/16 10:42:48;;;;;;;4.22;2.42;;;23.90;63.80;;;;;;5057373;28;20007;-55
2023/06/16 10:45:26;;;;;;;3.67;2.60;;;23.90;65.30;;;;;;5036130;28;20051;-56
2023/06/16 10:48:01;;;;;;;3.83;2.90;;;23.80;63.40;;;;;;5032164;28;20096;-55
2023/06/16 10:50:58;;;;;;;6.82;3.03;;;23.60;63.80;;;;;;5048459;28;20053;-56
2023/06/16 10:53:24;;;;;;;4.10;2.53;;;23.50;63.70;;;;;;5047787;28;20036;-56
2023/06/16 10:56:06;;;;;;;5.10;2.75;;;23.60;63.10;;;;;;5027478;28;20538;-56
2023/06/16 10:58:32;;;;;;;5.15;2.85;;;23.60;63.60;;;;;;5045750;28;20179;-55
2023/06/16 11:01:01;;;;;;;4.82;2.80;;;23.90;64.60;;;;;;5049791;28;20115;-55
2023/06/16 11:03:43;;;;;;;6.18;2.40;;;24.10;62.50;;;;;;5047970;28;20048;-55
2023/06/16 11:06:09;;;;;;;3.90;2.30;;;24.00;62.50;;;;;;5068657;28;21465;-58
2023/06/16 11:08:55;;;;;;;3.10;2.35;;;24.10;61.10;;;;;;5052333;28;20421;-57
2023/06/16 11:11:22;;;;;;;3.95;2.38;;;23.90;61.40;;;;;;5046313;28;20037;-57
2023/06/16 11:13:48;;;;;;;3.53;2.35;;;23.90;62.30;;;;;;5044890;28;20293;-55
2023/06/16 11:16:13;;;;;;;5.13;2.78;;;24.20;61.80;;;;;;5067066;28;20048;-60
2023/06/16 11:18:39;;;;;;;4.45;2.65;;;24.40;59.60;;;;;;5044265;28;20041;-56
2023/06/16 11:21:07;;;;;;;4.22;2.65;;;24.30;60.80;;;;;;5048164;28;20040;-55
2023/06/16 11:23:34;;;;;;;3.55;2.70;;;24.40;58.50;;;;;;5044272;28;20052;-57
2023/06/16 11:26:15;;;;;;;4.00;2.47;;;24.40;57.90;;;;;;5033438;28;20047;-56
2023/06/16 11:28:42;;;;;;;3.33;2.40;;;24.60;59.10;;;;;;5048204;28;20131;-59
2023/06/16 11:31:12;;;;;;;3.42;2.10;;;24.50;58.40;;;;;;5061562;28;20041;-57
2023/06/16 11:33:38;;;;;;;3.03;2.60;;;24.60;59.70;;;;;;5043677;28;20446;-57
2023/06/16 11:36:22;;;;;;;4.15;2.65;;;24.60;57.90;;;;;;5030646;28;20048;-57
2023/06/16 11:38:57;;;;;;;3.85;2.35;;;24.30;57.60;;;;;;5048651;28;20530;-59
2023/06/16 11:41:27;;;;;;;2.90;2.30;;;24.20;57.40;;;;;;5025565;28;20053;-57
2023/06/16 11:43:53;;;;;;;5.80;2.60;;;24.20;58.20;;;;;;5048527;28;20051;-56
2023/06/16 11:46:27;;;;;;;5.18;3.00;;;24.40;59.00;;;;;;5043863;28;20037;-58
2023/06/16 11:48:53;;;;;;;6.45;2.53;;;24.70;58.90;;;;;;5057982;28;20044;-59
2023/06/16 11:51:20;;;;;;;5.45;2.80;;;25.00;57.60;;;;;;5045547;28;20067;-60
2023/06/16 11:53:47;;;;;;;3.53;2.28;;;25.10;56.90;;;;;;5064717;28;20128;-54
2023/06/16 11:56:15;;;;;;;3.95;2.30;;;25.10;57.50;;;;;;5044221;28;20053;-55
2023/06/16 11:58:43;;;;;;;3.53;2.17;;;25.30;56.90;;;;;;5035648;28;20036;-57
2023/06/16 12:01:13;;;;;;;4.45;2.60;;;25.40;56.50;;;;;;5017667;28;20150;-58
2023/06/16 12:03:40;;;;;;;5.05;2.35;;;25.30;56.00;;;;;;5042431;28;20047;-58
2023/06/16 12:06:06;;;;;;;5.63;3.05;;;24.80;55.70;;;;;;5032409;28;20044;-56
2023/06/16 12:08:46;;;;;;;3.72;2.80;;;24.90;56.20;;;;;;5042939;28;20462;-56
2023/06/16 12:11:16;;;;;;;5.13;2.50;;;25.20;56.10;;;;;;5045033;28;20042;-56
2023/06/16 12:13:42;;;;;;;4.20;2.40;;;25.30;56.30;;;;;;5046418;28;20546;-58
2023/06/16 12:16:11;;;;;;;3.72;2.35;;;25.20;55.70;;;;;;5044739;28;20064;-58
2023/06/16 12:18:37;;;;;;;4.03;2.40;;;25.20;55.80;;;;;;5054998;28;20041;-57
2023/06/16 12:21:21;;;;;;;5.72;2.47;;;25.40;56.80;;;;;;5056198;28;20098;-56
2023/06/16 12:23:49;;;;;;;3.63;2.47;;;25.40;56.60;;;;;;5020585;28;20593;-59
2023/06/16 12:26:44;;;;;;;4.28;2.40;;;25.60;55.20;;;;;;5042230;28;20521;-58
2023/06/16 12:29:15;;;;;;;4.88;2.20;;;25.70;53.70;;;;;;5043483;28;20048;-56
2023/06/16 12:31:52;;;;;;;4.55;2.40;;;25.70;54.10;;;;;;5038578;28;20116;-59
2023/06/16 12:34:38;;;;;;;3.47;2.20;;;25.80;55.70;;;;;;5042461;28;20128;-57
2023/06/16 12:37:13;;;;;;;5.68;2.58;;;25.80;54.20;;;;;;5043423;28;20926;-58
2023/06/16 12:39:43;;;;;;;4.70;2.42;;;25.90;55.20;;;;;;5065420;28;20041;-59
2023/06/16 12:42:12;;;;;;;4.03;2.25;;;25.80;54.80;;;;;;5043994;28;20406;-56